createdAt,value
2018-05-25T00:00:37.157Z,7.90
2018-05-25T00:03:05.762Z,11.03
2018-05-25T00:05:33.525Z,13.33
2018-05-25T00:08:07.041Z,37.80
2018-05-25T00:10:37.366Z,33.33
2018-05-25T00:13:04.955Z,32.60
2018-05-25T00:15:32.607Z,23.37
2018-05-25T00:18:01.132Z,18.23
2018-05-25T00:20:29.673Z,16.87
2018-05-25T00:22:57.341Z,12.73
2018-05-25T00:25:25.132Z,10.13
2018-05-25T00:27:52.704Z,17.60
2018-05-25T00:30:20.296Z,14.60
2018-05-25T00:32:48.162Z,11.93
2018-05-25T00:35:15.769Z,13.40
2018-05-25T00:37:43.560Z,12.63
2018-05-25T00:40:11.111Z,15.13
2018-05-25T00:42:39.628Z,8.40
2018-05-25T00:45:08.063Z,13.23
2018-05-25T00:47:36.020Z,9.30
2018-05-25T00:50:03.690Z,9.63
2018-05-25T00:52:38.171Z,9.60
2018-05-25T00:55:17.605Z,17.43
2018-05-25T00:57:45.295Z,12.20
2018-05-25T01:00:12.873Z,12.03
2018-05-25T01:02:40.728Z,9.10
2018-05-25T01:05:08.372Z,11.30
2018-05-25T01:07:36.797Z,9.63
2018-05-25T01:10:04.460Z,14.37
2018-05-25T01:12:34.017Z,12.43
2018-05-25T01:15:01.720Z,10.93
2018-05-25T01:17:29.395Z,12.53
2018-05-25T01:19:57.101Z,10.63
2018-05-25T01:22:25.438Z,11.17
2018-05-25T01:24:53.244Z,14.80
2018-05-25T01:27:27.821Z,10.57
2018-05-25T01:29:55.483Z,12.57
2018-05-25T01:32:23.128Z,14.10
2018-05-25T01:34:54.553Z,14.27
2018-05-25T01:37:22.172Z,12.30
2018-05-25T01:39:49.896Z,21.00
2018-05-25T01:42:18.337Z,10.00
2018-05-25T01:44:46.028Z,14.13
2018-05-25T01:47:13.653Z,13.57
2018-05-25T01:49:41.216Z,12.47
2018-05-25T01:52:08.893Z,13.67
2018-05-25T01:54:36.800Z,7.80
2018-05-25T01:57:04.580Z,15.47
2018-05-25T01:59:32.235Z,11.07
2018-05-25T02:01:59.920Z,10.80
2018-05-25T02:04:27.772Z,9.77
2018-05-25T02:06:55.381Z,8.63
2018-05-25T02:09:23.036Z,19.97
2018-05-25T02:11:50.633Z,13.57
2018-05-25T02:14:18.239Z,11.67
2018-05-25T02:16:45.921Z,10.90
2018-05-25T02:19:13.660Z,12.13
2018-05-25T02:21:41.268Z,7.90
2018-05-25T02:24:08.940Z,8.77
2018-05-25T02:26:36.572Z,15.20
2018-05-25T02:29:04.192Z,13.87
2018-05-25T02:31:31.820Z,14.20
2018-05-25T02:33:59.482Z,15.20
2018-05-25T02:36:27.109Z,15.03
2018-05-25T02:38:54.912Z,11.10
2018-05-25T02:41:22.597Z,18.83
2018-05-25T02:43:51.407Z,20.43
2018-05-25T02:46:19.325Z,18.37
2018-05-25T02:48:46.960Z,16.30
2018-05-25T02:51:14.620Z,14.07
2018-05-25T02:53:43.619Z,16.13
2018-05-25T02:56:11.372Z,36.83
2018-05-25T02:58:39.745Z,21.40
2018-05-25T03:01:07.416Z,28.60
2018-05-25T03:03:35.116Z,24.17
2018-05-25T03:06:02.803Z,21.70
2018-05-25T03:08:31.341Z,29.10
2018-05-25T03:10:59.634Z,17.17
2018-05-25T03:13:27.558Z,20.67
2018-05-25T03:15:55.181Z,22.03
2018-05-25T03:18:22.891Z,20.70
2018-05-25T03:20:50.489Z,24.20
2018-05-25T03:23:18.844Z,36.40
2018-05-25T03:25:46.861Z,23.90
2018-05-25T03:28:14.482Z,28.20
2018-05-25T03:30:42.168Z,20.47
2018-05-25T03:33:09.806Z,34.60
2018-05-25T03:35:37.469Z,52.83
2018-05-25T03:38:05.182Z,30.37
2018-05-25T03:40:32.816Z,22.20
2018-05-25T03:43:00.474Z,22.50
2018-05-25T03:45:28.704Z,34.10
2018-05-25T03:47:56.390Z,26.83
2018-05-25T03:50:24.172Z,17.60
2018-05-25T03:52:51.820Z,20.67
2018-05-25T03:55:19.468Z,26.10
2018-05-25T03:57:47.120Z,17.63
2018-05-25T04:00:26.463Z,15.63
2018-05-25T04:02:54.125Z,22.23
2018-05-25T04:05:21.861Z,30.53
2018-05-25T04:07:50.368Z,16.67
2018-05-25T04:10:18.021Z,14.27
2018-05-25T04:12:45.732Z,15.93
2018-05-25T04:15:13.385Z,16.80
2018-05-25T04:17:40.985Z,24.33
2018-05-25T04:20:09.220Z,10.63
2018-05-25T04:22:36.896Z,20.00
2018-05-25T04:25:04.530Z,14.10
2018-05-25T04:27:32.225Z,10.50
2018-05-25T04:29:59.967Z,12.53
2018-05-25T04:32:27.629Z,12.53
2018-05-25T04:34:55.270Z,8.70
2018-05-25T04:37:22.910Z,12.40
2018-05-25T04:39:50.540Z,10.63
2018-05-25T04:42:18.193Z,14.27
2018-05-25T04:44:45.933Z,9.57
2018-05-25T04:47:13.534Z,10.80
2018-05-25T04:49:41.250Z,12.30
2018-05-25T04:52:08.840Z,8.23
2018-05-25T04:54:36.465Z,14.63
2018-05-25T04:57:04.147Z,14.93
2018-05-25T04:59:31.722Z,7.73
2018-05-25T05:01:59.350Z,9.60
2018-05-25T05:04:26.959Z,12.40
2018-05-25T05:06:54.608Z,10.90
2018-05-25T05:09:22.348Z,15.27
2018-05-25T05:11:49.970Z,9.90
2018-05-25T05:14:17.656Z,14.20
2018-05-25T05:16:45.385Z,13.90
2018-05-25T05:19:13.083Z,10.40
2018-05-25T05:21:40.657Z,11.67
2018-05-25T05:24:09.113Z,11.87
2018-05-25T05:26:36.809Z,9.27
2018-05-25T05:29:04.437Z,9.93
2018-05-25T05:31:32.088Z,13.30
2018-05-25T05:34:00.566Z,10.60
2018-05-25T05:36:38.497Z,9.27
2018-05-25T05:39:06.195Z,10.47
2018-05-25T05:41:34.084Z,10.63
2018-05-25T05:44:01.720Z,14.93
2018-05-25T05:46:29.338Z,16.70
2018-05-25T05:48:56.940Z,10.90
2018-05-25T05:51:24.545Z,5.57
2018-05-25T05:53:52.313Z,10.93
2018-05-25T05:56:19.926Z,15.73
2018-05-25T05:58:47.637Z,9.60
2018-05-25T06:01:16.140Z,9.97
2018-05-25T06:03:43.725Z,10.07
2018-05-25T06:06:11.341Z,9.23
2018-05-25T06:08:38.973Z,12.00
2018-05-25T06:11:06.691Z,6.60
2018-05-25T06:13:34.412Z,6.00
2018-05-25T06:16:01.982Z,5.63
2018-05-25T06:18:29.666Z,9.20
2018-05-25T06:20:57.258Z,9.47
2018-05-25T06:23:24.924Z,5.57
2018-05-25T06:25:52.544Z,5.43
2018-05-25T06:28:20.213Z,17.73
2018-05-25T06:31:05.345Z,7.20
2018-05-25T06:33:33.022Z,7.57
2018-05-25T06:36:01.496Z,7.90
2018-05-25T06:38:29.088Z,11.93
2018-05-25T06:40:56.666Z,4.77
2018-05-25T06:43:24.322Z,11.77
2018-05-25T06:45:52.083Z,7.27
2018-05-25T06:48:19.643Z,7.60
2018-05-25T06:50:47.286Z,13.30
2018-05-25T06:53:14.891Z,8.20
2018-05-25T06:55:42.472Z,8.40
2018-05-25T06:58:10.101Z,6.90
2018-05-25T07:00:37.749Z,7.07
2018-05-25T07:03:05.383Z,4.80
2018-05-25T07:05:33.167Z,7.67
2018-05-25T07:08:01.532Z,15.23
2018-05-25T07:10:30.105Z,13.83
2018-05-25T07:12:57.688Z,9.70
2018-05-25T07:15:25.382Z,11.80
2018-05-25T07:17:53.026Z,10.17
2018-05-25T07:20:20.778Z,6.67
2018-05-25T07:22:48.344Z,17.20
2018-05-25T07:25:16.004Z,11.00
2018-05-25T07:27:43.594Z,13.57
2018-05-25T07:30:11.228Z,13.30
2018-05-25T07:32:38.892Z,6.70
2018-05-25T07:35:06.452Z,5.63
2018-05-25T07:37:34.080Z,11.40
2018-05-25T07:40:01.755Z,6.93
2018-05-25T07:42:29.353Z,7.40
2018-05-25T07:44:57.011Z,9.93
2018-05-25T07:47:24.867Z,6.60
2018-05-25T07:49:52.439Z,8.00
2018-05-25T07:52:20.094Z,9.50
2018-05-25T07:54:47.713Z,7.27
2018-05-25T07:57:15.288Z,7.83
2018-05-25T07:59:42.840Z,5.03
2018-05-25T08:02:11.249Z,11.00
2018-05-25T08:04:39.102Z,7.33
2018-05-25T08:07:07.560Z,4.93
2018-05-25T08:09:35.161Z,7.07
2018-05-25T08:12:02.822Z,22.00
2018-05-25T08:14:30.469Z,11.00
2018-05-25T08:16:58.174Z,5.60
2018-05-25T08:19:25.744Z,6.80
2018-05-25T08:21:53.448Z,9.20
2018-05-25T08:24:21.041Z,6.53
2018-05-25T08:26:48.673Z,7.80
2018-05-25T08:29:16.300Z,11.47
2018-05-25T08:31:43.860Z,7.13
2018-05-25T08:34:11.484Z,6.17
2018-05-25T08:36:39.148Z,6.67
2018-05-25T08:39:06.798Z,11.83
2018-05-25T08:41:34.396Z,7.23
2018-05-25T08:44:01.985Z,7.43
2018-05-25T08:46:29.696Z,12.03
2018-05-25T08:48:57.385Z,6.27
2018-05-25T08:51:24.980Z,6.90
2018-05-25T08:53:52.622Z,8.10
2018-05-25T08:56:20.204Z,8.97
2018-05-25T08:58:47.818Z,10.13
2018-05-25T09:01:15.418Z,7.07
2018-05-25T09:03:43.076Z,9.07
2018-05-25T09:06:10.853Z,7.63
2018-05-25T09:08:38.504Z,10.80
2018-05-25T09:11:06.158Z,7.57
2018-05-25T09:13:33.812Z,5.33
2018-05-25T09:16:01.389Z,6.90
2018-05-25T09:18:28.948Z,6.70
2018-05-25T09:20:56.572Z,7.10
2018-05-25T09:23:24.156Z,18.70
2018-05-25T09:25:51.737Z,10.13
2018-05-25T09:28:19.304Z,7.10
2018-05-25T09:30:46.906Z,10.37
2018-05-25T09:33:14.502Z,6.33
2018-05-25T09:35:42.093Z,10.60
2018-05-25T09:38:09.716Z,5.67
2018-05-25T09:40:37.284Z,10.20
2018-05-25T09:43:04.848Z,6.67
2018-05-25T09:45:32.417Z,4.17
2018-05-25T09:48:00.041Z,12.23
2018-05-25T09:50:27.700Z,8.80
2018-05-25T09:52:55.296Z,6.23
2018-05-25T09:55:23.009Z,11.33
2018-05-25T09:57:56.643Z,10.40
2018-05-25T10:00:25.995Z,3.93
2018-05-25T10:02:53.569Z,5.87
2018-05-25T10:05:21.156Z,6.87
2018-05-25T10:07:48.736Z,3.30
2018-05-25T10:10:16.373Z,6.37
2018-05-25T10:12:43.939Z,6.13
2018-05-25T10:15:11.570Z,6.77
2018-05-25T10:17:39.196Z,6.73
2018-05-25T10:20:07.529Z,5.20
2018-05-25T10:22:35.158Z,5.70
2018-05-25T10:25:02.768Z,15.30
2018-05-25T10:27:30.396Z,10.83
2018-05-25T10:29:57.981Z,7.87
2018-05-25T10:32:25.559Z,7.50
2018-05-25T10:34:53.188Z,5.30
2018-05-25T10:37:20.753Z,5.07
2018-05-25T10:39:48.340Z,6.37
2018-05-25T10:42:16.007Z,7.80
2018-05-25T10:44:43.612Z,4.83
2018-05-25T10:47:11.258Z,6.23
2018-05-25T10:49:38.856Z,4.17
2018-05-25T10:52:06.500Z,3.57
2018-05-25T10:54:34.084Z,5.03
2018-05-25T10:57:01.657Z,6.45
2018-05-25T10:59:29.300Z,13.60
2018-05-25T11:01:56.928Z,6.00
2018-05-25T11:04:24.505Z,6.03
2018-05-25T11:06:52.086Z,6.03
2018-05-25T11:09:19.720Z,4.20
2018-05-25T11:11:47.304Z,9.45
2018-05-25T11:14:14.918Z,4.75
2018-05-25T11:16:42.545Z,6.30
2018-05-25T11:19:10.150Z,8.65
2018-05-25T11:21:37.753Z,4.62
2018-05-25T11:24:05.332Z,7.82
2018-05-25T11:26:32.992Z,4.28
2018-05-25T11:29:00.637Z,6.82
2018-05-25T11:31:28.251Z,10.30
2018-05-25T11:33:55.862Z,5.82
2018-05-25T11:36:23.457Z,15.18
2018-05-25T11:38:51.093Z,5.73
2018-05-25T11:41:18.694Z,7.97
2018-05-25T11:43:46.345Z,9.23
2018-05-25T11:46:13.977Z,10.90
2018-05-25T11:48:41.573Z,5.07
2018-05-25T11:51:09.160Z,5.85
2018-05-25T11:53:36.725Z,6.30
2018-05-25T11:56:04.331Z,8.00
2018-05-25T11:58:31.904Z,3.95
2018-05-25T12:00:59.513Z,3.42
2018-05-25T12:03:27.109Z,3.65
2018-05-25T12:05:54.724Z,6.55
2018-05-25T12:08:22.329Z,5.15
2018-05-25T12:10:49.892Z,8.80
2018-05-25T12:13:17.524Z,4.53
2018-05-25T12:15:45.142Z,5.57
2018-05-25T12:18:12.792Z,5.30
2018-05-25T12:20:40.403Z,3.28
2018-05-25T12:23:08.041Z,3.85
2018-05-25T12:25:35.616Z,7.00
2018-05-25T12:28:03.222Z,9.20
2018-05-25T12:30:30.797Z,5.12
2018-05-25T12:32:58.455Z,4.05
2018-05-25T12:35:26.068Z,5.45
2018-05-25T12:37:53.642Z,12.93
2018-05-25T12:40:21.283Z,6.18
2018-05-25T12:42:48.844Z,8.38
2018-05-25T12:45:16.417Z,4.57
2018-05-25T12:47:44.009Z,6.85
2018-05-25T12:50:11.632Z,6.03
2018-05-25T12:52:39.216Z,5.43
2018-05-25T12:55:06.811Z,5.03
2018-05-25T12:57:34.427Z,6.37
2018-05-25T13:00:02.011Z,10.13
2018-05-25T13:02:29.609Z,7.00
2018-05-25T13:04:57.599Z,6.97
2018-05-25T13:07:25.311Z,6.37
2018-05-25T13:09:52.904Z,5.00
2018-05-25T13:12:20.580Z,7.87
2018-05-25T13:14:48.172Z,6.43
2018-05-25T13:17:15.765Z,7.03
2018-05-25T13:19:43.373Z,8.07
2018-05-25T13:22:10.976Z,15.70
2018-05-25T13:24:38.578Z,9.13
2018-05-25T13:27:06.252Z,13.37
2018-05-25T13:29:33.895Z,9.50
2018-05-25T13:32:01.552Z,20.93
2018-05-25T13:34:29.180Z,17.67
2018-05-25T13:36:56.752Z,14.43
2018-05-25T13:39:24.345Z,13.10
2018-05-25T13:41:51.953Z,11.70
2018-05-25T13:44:19.518Z,15.80
2018-05-25T13:46:47.204Z,8.10
2018-05-25T13:49:15.002Z,25.10
2018-05-25T13:51:42.626Z,34.43
2018-05-25T13:54:11.145Z,22.80
2018-05-25T13:56:38.728Z,27.07
2018-05-25T13:59:06.364Z,13.97
2018-05-25T14:01:33.960Z,23.37
2018-05-25T14:04:01.541Z,17.70
2018-05-25T14:06:29.124Z,18.20
2018-05-25T14:08:56.785Z,20.30
2018-05-25T14:11:24.397Z,22.13
2018-05-25T14:13:52.000Z,29.83
2018-05-25T14:16:19.582Z,17.50
2018-05-25T14:18:47.161Z,26.20
2018-05-25T14:21:14.755Z,13.83
2018-05-25T14:23:42.344Z,11.80
2018-05-25T14:26:09.968Z,14.90
2018-05-25T14:28:37.542Z,27.80
2018-05-25T14:31:05.106Z,11.87
2018-05-25T14:33:32.714Z,13.77
2018-05-25T14:36:00.288Z,13.10
2018-05-25T14:38:27.965Z,13.20
2018-05-25T14:40:55.564Z,14.03
2018-05-25T14:43:23.165Z,14.37
2018-05-25T14:45:50.752Z,15.80
2018-05-25T14:48:18.329Z,16.23
2018-05-25T14:50:45.972Z,22.00
2018-05-25T14:53:13.563Z,15.00
2018-05-25T14:55:41.137Z,13.00
2018-05-25T14:58:08.717Z,8.20
2018-05-25T15:00:36.300Z,12.87
2018-05-25T15:03:03.929Z,11.40
2018-05-25T15:05:31.720Z,10.23
2018-05-25T15:07:59.399Z,12.17
2018-05-25T15:10:27.149Z,14.13
2018-05-25T15:12:54.724Z,13.33
2018-05-25T15:15:22.372Z,14.37
2018-05-25T15:17:49.945Z,14.03
2018-05-25T15:20:17.637Z,14.50
2018-05-25T15:22:45.209Z,12.50
2018-05-25T15:25:12.864Z,12.03
2018-05-25T15:27:40.453Z,11.97
2018-05-25T15:30:08.020Z,13.37
2018-05-25T15:32:35.724Z,15.53
2018-05-25T15:35:03.328Z,19.67
2018-05-25T15:37:30.916Z,17.40
2018-05-25T15:39:58.485Z,14.70
2018-05-25T15:42:26.069Z,18.47
2018-05-25T15:49:59.423Z,16.07
2018-05-25T15:52:27.019Z,13.97
2018-05-25T15:54:54.707Z,12.70
2018-05-25T15:57:22.337Z,15.23
2018-05-25T15:59:49.929Z,16.33
2018-05-25T16:02:17.557Z,11.67
2018-05-25T16:04:45.217Z,16.60
2018-05-25T16:07:12.967Z,14.67
2018-05-25T16:09:40.643Z,16.13
2018-05-25T16:12:08.454Z,18.13
2018-05-25T16:14:36.068Z,26.63
2018-05-25T16:17:04.472Z,24.83
2018-05-25T16:19:32.123Z,13.07
2018-05-25T16:21:59.777Z,15.63
2018-05-25T16:24:27.532Z,20.43
2018-05-25T16:26:55.136Z,12.93
2018-05-25T16:29:22.716Z,11.97
2018-05-25T16:31:50.261Z,27.97
2018-05-25T16:34:17.933Z,28.20
2018-05-25T16:36:45.536Z,19.73
2018-05-25T16:39:13.080Z,16.27
2018-05-25T16:41:40.619Z,16.00
2018-05-25T16:44:08.284Z,24.53
2018-05-25T16:46:36.224Z,15.73
2018-05-25T16:49:04.048Z,22.13
2018-05-25T16:51:31.634Z,17.03
2018-05-25T16:53:59.181Z,19.60
2018-05-25T16:56:26.830Z,14.87
2018-05-25T16:58:54.450Z,15.90
2018-05-25T17:01:22.065Z,18.40
2018-05-25T17:03:49.616Z,18.17
2018-05-25T17:06:17.312Z,28.27
2018-05-25T17:08:45.084Z,21.53
2018-05-25T17:11:12.741Z,22.13
2018-05-25T17:13:40.342Z,20.27
2018-05-25T17:16:07.933Z,32.20
2018-05-25T17:18:35.609Z,24.80
2018-05-25T17:21:03.300Z,24.90
2018-05-25T17:23:31.026Z,25.53
2018-05-25T17:25:58.728Z,30.80
2018-05-25T17:28:26.392Z,31.90
2018-05-25T17:30:54.061Z,26.67
2018-05-25T17:33:21.664Z,25.70
2018-05-25T17:35:49.334Z,21.77
2018-05-25T17:38:16.898Z,23.20
2018-05-25T17:40:44.496Z,28.47
2018-05-25T17:43:12.129Z,21.37
2018-05-25T17:45:39.675Z,24.13
2018-05-25T17:48:07.359Z,31.63
2018-05-25T17:50:35.029Z,36.00
2018-05-25T17:53:02.630Z,27.43
2018-05-25T17:55:30.260Z,24.53
2018-05-25T17:57:57.801Z,22.23
2018-05-25T18:00:25.401Z,19.50
2018-05-25T18:02:52.973Z,20.90
2018-05-25T18:05:21.025Z,21.30
2018-05-25T18:07:48.645Z,23.13
2018-05-25T18:10:16.316Z,42.00
2018-05-25T18:12:43.833Z,27.70
2018-05-25T18:15:11.433Z,26.00
2018-05-25T18:17:39.050Z,21.27
2018-05-25T18:20:06.706Z,22.77
2018-05-25T18:22:34.378Z,28.97
2018-05-25T18:25:01.974Z,23.03
2018-05-25T18:27:29.602Z,21.73
2018-05-25T18:29:57.277Z,20.77
2018-05-25T18:32:25.004Z,20.60
2018-05-25T18:34:52.641Z,17.93
2018-05-25T18:37:20.267Z,17.27
2018-05-25T18:39:47.941Z,25.00
2018-05-25T18:42:15.560Z,28.93
2018-05-25T18:44:43.186Z,22.70
2018-05-25T18:47:11.428Z,17.67
2018-05-25T18:49:38.972Z,18.20
2018-05-25T18:52:06.604Z,19.33
2018-05-25T18:54:34.270Z,19.63
2018-05-25T18:57:01.877Z,22.50
2018-05-25T18:59:29.428Z,18.80
2018-05-25T19:01:57.109Z,31.07
2018-05-25T19:04:24.869Z,21.03
2018-05-25T19:06:52.570Z,26.47
2018-05-25T19:09:20.156Z,23.30
2018-05-25T19:11:47.790Z,16.80
2018-05-25T19:14:15.456Z,15.00
2018-05-25T19:16:43.124Z,15.87
2018-05-25T19:19:10.703Z,17.80
2018-05-25T19:21:38.293Z,19.47
2018-05-25T19:24:05.889Z,15.70
2018-05-25T19:26:33.521Z,25.33
2018-05-25T19:29:01.121Z,16.30
2018-05-25T19:31:28.723Z,18.50
2018-05-25T19:33:56.333Z,18.67
2018-05-25T19:36:24.093Z,19.33
2018-05-25T19:38:52.609Z,13.77
2018-05-25T19:41:21.030Z,18.53
2018-05-25T19:43:48.818Z,14.77
2018-05-25T19:46:16.433Z,19.43
2018-05-25T19:48:44.045Z,17.07
2018-05-25T19:51:11.735Z,18.30
2018-05-25T19:53:39.392Z,18.17
2018-05-25T19:56:07.029Z,15.67
2018-05-25T19:58:35.208Z,16.60
2018-05-25T20:01:05.620Z,22.50
2018-05-25T20:03:33.213Z,17.10
2018-05-25T20:06:01.717Z,21.20
2018-05-25T20:08:29.700Z,25.23
2018-05-25T20:10:57.450Z,16.40
2018-05-25T20:13:25.101Z,14.47
2018-05-25T20:15:53.549Z,18.73
2018-05-25T20:18:21.163Z,19.90
2018-05-25T20:20:49.677Z,12.10
2018-05-25T20:23:17.378Z,20.10
2018-05-25T20:25:44.856Z,12.10
2018-05-25T20:28:12.392Z,13.57
2018-05-25T20:30:40.004Z,17.40
2018-05-25T20:33:07.618Z,13.33
2018-05-25T20:35:35.173Z,14.40
2018-05-25T20:38:02.817Z,12.83
2018-05-25T20:40:30.507Z,18.50
2018-05-25T20:42:58.113Z,13.20
2018-05-25T20:45:25.666Z,29.20
2018-05-25T20:47:53.330Z,15.77
2018-05-25T20:50:21.000Z,17.00
2018-05-25T20:52:48.718Z,16.53
2018-05-25T20:55:16.349Z,20.60
2018-05-25T20:57:44.123Z,15.57
2018-05-25T21:00:11.673Z,22.17
2018-05-25T21:02:42.020Z,25.57
2018-05-25T21:05:09.817Z,18.00
2018-05-25T21:07:37.420Z,29.00
2018-05-25T21:10:04.959Z,29.87
2018-05-25T21:12:32.554Z,27.67
2018-05-25T21:15:00.181Z,20.00
2018-05-25T21:17:27.728Z,18.40
2018-05-25T21:19:55.343Z,16.80
2018-05-25T21:22:24.084Z,22.77
2018-05-25T21:24:51.639Z,16.70
2018-05-25T21:27:19.186Z,14.70
2018-05-25T21:29:46.911Z,11.60
2018-05-25T21:32:15.141Z,14.90
2018-05-25T21:34:43.485Z,13.43
2018-05-25T21:37:11.080Z,17.10
2018-05-25T21:39:39.563Z,14.47
2018-05-25T21:42:07.171Z,14.87
2018-05-25T21:44:35.036Z,17.70
2018-05-25T21:47:02.746Z,12.90
2018-05-25T21:49:30.428Z,17.70
2018-05-25T21:51:57.966Z,13.63
2018-05-25T21:54:25.876Z,17.13
2018-05-25T21:56:54.312Z,19.60
2018-05-25T21:59:24.973Z,13.63
2018-05-25T22:01:53.534Z,12.23
2018-05-25T22:04:21.312Z,13.63
2018-05-25T22:06:48.946Z,20.10
2018-05-25T22:09:16.520Z,23.60
2018-05-25T22:11:44.244Z,16.03
2018-05-25T22:14:11.856Z,16.30
2018-05-25T22:16:39.590Z,26.50
2018-05-25T22:19:07.177Z,22.50
2018-05-25T22:21:34.720Z,12.63
2018-05-25T22:24:02.320Z,13.70
2018-05-25T22:26:30.811Z,15.00
2018-05-25T22:28:58.625Z,29.37
2018-05-25T22:31:26.220Z,15.13
2018-05-25T22:33:54.952Z,13.53
2018-05-25T22:36:22.606Z,13.97
2018-05-25T22:38:50.296Z,20.40
2018-05-25T22:41:18.144Z,16.00
2018-05-25T22:43:57.389Z,21.73
2018-05-25T22:46:36.717Z,15.37
2018-05-25T22:49:15.997Z,22.97
2018-05-25T22:51:55.458Z,17.70
2018-05-25T22:54:42.866Z,16.23
2018-05-25T22:57:10.582Z,13.30
2018-05-25T22:59:39.420Z,12.57
2018-05-25T23:02:07.012Z,13.00
2018-05-25T23:04:35.413Z,15.40
2018-05-25T23:07:03.008Z,20.63
2018-05-25T23:09:30.568Z,16.07
2018-05-25T23:11:58.124Z,11.37
2018-05-25T23:14:25.691Z,15.70
2018-05-25T23:16:53.297Z,14.07
2018-05-25T23:19:20.967Z,16.50
2018-05-25T23:21:49.536Z,16.20
2018-05-25T23:24:17.153Z,19.20
2018-05-25T23:26:45.093Z,21.97
2018-05-25T23:29:15.849Z,17.93
2018-05-25T23:31:44.184Z,20.93
2018-05-25T23:34:12.055Z,21.23
2018-05-25T23:36:39.667Z,21.90
2018-05-25T23:39:07.232Z,21.57
2018-05-25T23:41:34.920Z,21.83
2018-05-25T23:44:02.525Z,33.20
2018-05-25T23:46:30.177Z,16.50
2018-05-25T23:48:57.922Z,19.77
2018-05-25T23:51:28.896Z,13.93
2018-05-25T23:53:57.368Z,18.43
2018-05-25T23:56:25.692Z,12.93
2018-05-25T23:58:53.350Z,11.97
